Time;durP1;ratioP1;P1;durP2;ratioP2;P2;SDS_P1;SDS_P2;PMS_P1;PMS_P2;Temp;Humidity;BMP_temperature;BMP_pressure;BME280_temperature;BME280_humidity;BME280_pressure;Samples;Min_cycle;Max_cycle;Signal;HPM_P1;HPM_P2
2022/05/11 00:01:14;;;;;;;9.73;6.25;;;25.40;99.90;;;;;;5091890;28;20117;-47
2022/05/11 00:03:41;;;;;;;7.75;5.68;;;25.40;99.90;;;;;;5091407;28;20020;-47
2022/05/11 00:06:07;;;;;;;7.70;5.93;;;25.40;99.90;;;;;;5091407;28;20498;-47
2022/05/11 00:08:32;;;;;;;8.70;6.00;;;25.40;99.90;;;;;;5091556;28;20031;-47
2022/05/11 00:10:58;;;;;;;9.30;6.25;;;25.40;99.90;;;;;;5091717;28;20025;-47
2022/05/11 00:13:24;;;;;;;8.73;6.07;;;25.40;99.90;;;;;;5091463;28;20031;-47
2022/05/11 00:15:51;;;;;;;8.98;6.30;;;25.40;99.90;;;;;;5091317;28;20055;-48
2022/05/11 00:18:17;;;;;;;7.43;5.93;;;25.40;99.90;;;;;;5091456;28;20035;-47
2022/05/11 00:20:43;;;;;;;8.30;6.05;;;25.40;99.90;;;;;;5091169;28;20036;-47
2022/05/11 00:23:08;;;;;;;8.88;6.68;;;25.40;99.90;;;;;;5091299;28;20153;-47
2022/05/11 00:25:34;;;;;;;8.05;5.70;;;25.40;99.90;;;;;;5091127;28;20391;-47
2022/05/11 00:28:00;;;;;;;8.80;6.50;;;25.40;99.90;;;;;;5091508;28;20020;-47
2022/05/11 00:30:28;;;;;;;10.82;6.60;;;25.40;99.90;;;;;;5091303;28;20034;-47
2022/05/11 00:32:56;;;;;;;9.88;6.82;;;25.30;99.90;;;;;;5091160;28;20020;-47
2022/05/11 00:35:23;;;;;;;8.32;6.45;;;25.30;99.90;;;;;;5091124;28;20099;-47
2022/05/11 00:37:50;;;;;;;8.25;6.40;;;25.30;99.90;;;;;;5091084;28;20020;-47
2022/05/11 00:40:17;;;;;;;8.57;6.25;;;25.30;99.90;;;;;;5090869;28;20039;-47
2022/05/11 00:42:43;;;;;;;8.38;6.25;;;25.30;99.90;;;;;;5072997;28;20127;-47
2022/05/11 00:45:09;;;;;;;8.77;6.45;;;25.30;99.90;;;;;;5091215;28;20115;-47
2022/05/11 00:47:48;;;;;;;10.10;6.57;;;25.30;99.90;;;;;;5091213;28;20024;-47
2022/05/11 00:50:34;;;;;;;8.05;6.30;;;25.30;99.90;;;;;;5091072;28;20020;-47
2022/05/11 00:53:11;;;;;;;8.20;6.68;;;25.30;99.90;;;;;;5091029;28;20393;-47
2022/05/11 00:55:43;;;;;;;10.02;6.53;;;25.30;99.90;;;;;;5090966;28;20107;-47
2022/05/11 00:58:20;;;;;;;10.23;6.82;;;25.30;99.90;;;;;;5091065;28;20012;-47
2022/05/11 01:00:46;;;;;;;10.65;6.40;;;25.30;99.90;;;;;;5077075;22;20124;-50
2022/05/11 01:03:19;;;;;;;8.63;6.38;;;25.30;99.90;;;;;;5054486;28;20484;-49
2022/05/11 01:05:46;;;;;;;8.30;6.32;;;25.30;99.90;;;;;;5054525;28;20029;-52
2022/05/11 01:08:13;;;;;;;9.17;6.47;;;25.30;99.90;;;;;;5054508;28;20029;-51
2022/05/11 01:10:39;;;;;;;;;;;25.30;99.90;;;;;;5054974;28;20261;-52
2022/05/11 01:13:09;;;;;;;9.48;6.53;;;25.30;99.90;;;;;;5054367;28;20017;-52
2022/05/11 01:15:36;;;;;;;7.90;5.63;;;25.30;99.90;;;;;;5054485;28;20021;-51
2022/05/11 01:18:05;;;;;;;8.70;6.32;;;25.30;99.90;;;;;;5054602;28;20104;-51
2022/05/11 01:20:33;;;;;;;7.13;5.93;;;25.30;99.90;;;;;;5054192;28;20048;-51
2022/05/11 01:23:11;;;;;;;9.07;6.40;;;25.30;99.90;;;;;;5054391;28;20017;-51
2022/05/11 01:25:37;;;;;;;8.00;5.85;;;25.30;99.90;;;;;;5054520;28;20029;-51
2022/05/11 01:28:11;;;;;;;11.15;6.50;;;25.30;99.90;;;;;;5054434;28;20380;-51
2022/05/11 01:30:44;;;;;;;8.70;5.93;;;25.30;99.90;;;;;;5052836;28;20043;-50
2022/05/11 01:33:15;;;;;;;7.63;5.32;;;25.30;99.90;;;;;;5054049;28;20029;-51
2022/05/11 01:36:03;;;;;;;8.27;6.05;;;25.30;99.90;;;;;;5054069;28;20187;-52
2022/05/11 01:38:40;;;;;;;7.72;5.60;;;25.20;99.90;;;;;;5054066;28;20057;-52
2022/05/11 01:41:07;;;;;;;6.65;5.45;;;25.30;99.90;;;;;;5053704;28;20041;-52
2022/05/11 01:43:35;;;;;;;;;;;25.20;99.90;;;;;;5054428;28;20053;-51
2022/05/11 01:46:01;;;;;;;6.80;5.05;;;25.20;99.90;;;;;;5053956;28;19912;-51
2022/05/11 01:48:28;;;;;;;6.53;5.35;;;25.20;99.90;;;;;;5053790;28;20087;-51
2022/05/11 01:50:54;;;;;;;8.23;5.70;;;25.30;99.90;;;;;;5052378;28;20021;-52
2022/05/11 01:53:20;;;;;;;6.60;5.70;;;25.20;99.90;;;;;;5053623;28;20021;-51
2022/05/11 01:55:47;;;;;;;7.68;5.28;;;25.30;99.90;;;;;;5053659;28;20028;-51
2022/05/11 01:58:13;;;;;;;7.18;5.10;;;25.20;99.90;;;;;;5053656;28;20435;-51
2022/05/11 02:00:43;;;;;;;8.23;6.27;;;25.20;99.90;;;;;;5077736;23;20040;-56
2022/05/11 02:03:09;;;;;;;8.65;5.65;;;25.20;99.90;;;;;;5073544;28;20032;-55
2022/05/11 02:08:20;;;;;;;8.20;5.95;;;25.20;99.90;;;;;;5073469;28;20407;-55
2022/05/11 02:10:46;;;;;;;5.68;4.82;;;25.20;99.90;;;;;;5073284;28;20056;-55
2022/05/11 02:13:12;;;;;;;6.47;5.25;;;25.20;99.90;;;;;;5072224;28;20040;-55
2022/05/11 02:15:38;;;;;;;8.55;5.80;;;25.20;99.90;;;;;;5073118;28;20029;-55
2022/05/11 02:18:05;;;;;;;9.05;5.60;;;25.20;99.90;;;;;;5073110;28;20032;-56
2022/05/11 02:20:31;;;;;;;6.75;5.50;;;25.20;99.90;;;;;;5073052;28;20033;-55
2022/05/11 02:22:57;;;;;;;7.30;5.20;;;25.20;99.90;;;;;;5072858;28;20148;-56
2022/05/11 02:25:24;;;;;;;5.78;4.75;;;25.20;99.90;;;;;;5073101;28;20103;-56
2022/05/11 02:27:51;;;;;;;8.30;5.60;;;25.20;99.90;;;;;;5073056;28;20082;-56
2022/05/11 02:30:21;;;;;;;7.63;5.00;;;25.20;99.90;;;;;;5073241;28;20439;-56
2022/05/11 02:32:47;;;;;;;6.40;4.93;;;25.20;99.90;;;;;;5073081;28;20020;-56
2022/05/11 02:35:13;;;;;;;7.40;5.30;;;25.20;99.90;;;;;;5072763;28;20111;-56
2022/05/11 02:37:45;;;;;;;7.40;4.97;;;25.20;99.90;;;;;;5071562;28;20024;-56
2022/05/11 02:40:13;;;;;;;6.60;4.63;;;25.10;99.90;;;;;;5072570;28;20032;-56
2022/05/11 02:42:39;;;;;;;7.82;4.97;;;25.10;99.90;;;;;;5072700;28;20025;-56
2022/05/11 02:45:05;;;;;;;6.07;4.70;;;25.10;99.90;;;;;;5072626;28;20552;-56
2022/05/11 02:47:32;;;;;;;6.47;5.13;;;25.10;99.90;;;;;;5072529;28;20029;-56
2022/05/11 02:49:57;;;;;;;6.90;5.28;;;25.20;99.90;;;;;;5072615;28;20027;-56
2022/05/11 02:52:24;;;;;;;6.25;4.68;;;25.20;99.90;;;;;;5072703;28;20024;-55
2022/05/11 02:54:49;;;;;;;6.95;4.75;;;25.10;99.90;;;;;;5072594;28;20021;-56
2022/05/11 02:57:19;;;;;;;6.20;4.43;;;25.10;99.90;;;;;;5072208;28;20115;-56
2022/05/11 02:59:45;;;;;;;5.55;4.47;;;25.10;99.90;;;;;;5072603;28;20121;-56
2022/05/11 03:02:11;;;;;;;6.25;5.28;;;25.10;99.90;;;;;;5072303;28;20078;-55
2022/05/11 03:04:39;;;;;;;6.80;4.05;;;25.10;99.90;;;;;;5072099;28;20125;-56
2022/05/11 03:07:04;;;;;;;5.68;4.25;;;25.10;99.90;;;;;;5072283;28;20108;-56
2022/05/11 03:09:30;;;;;;;6.53;4.32;;;25.10;99.90;;;;;;5072093;28;20452;-55
2022/05/11 03:11:56;;;;;;;5.82;4.13;;;25.10;99.90;;;;;;5072045;28;20081;-56
2022/05/11 03:14:22;;;;;;;4.97;4.22;;;25.10;99.90;;;;;;5072381;28;20031;-56
2022/05/11 03:16:48;;;;;;;7.78;4.65;;;25.10;99.90;;;;;;5072170;28;20390;-56
2022/05/11 03:19:14;;;;;;;6.20;4.38;;;25.10;99.90;;;;;;5071770;28;20190;-56
2022/05/11 03:21:39;;;;;;;6.45;3.78;;;25.10;99.90;;;;;;5070812;28;20075;-56
2022/05/11 03:24:06;;;;;;;4.95;4.20;;;25.10;99.90;;;;;;5071603;28;20063;-56
2022/05/11 03:26:34;;;;;;;6.38;4.20;;;25.10;99.90;;;;;;5071953;28;20031;-56
2022/05/11 03:29:00;;;;;;;5.50;4.00;;;25.00;99.90;;;;;;5070509;28;20034;-55
2022/05/11 03:36:54;;;;;;;5.25;4.13;;;25.00;99.90;;;;;;5071821;28;20032;-55
2022/05/11 03:39:19;;;;;;;6.88;4.75;;;25.00;99.90;;;;;;5071352;28;20021;-55
2022/05/11 03:41:45;;;;;;;5.97;4.35;;;25.00;99.90;;;;;;5071749;28;20032;-55
2022/05/11 03:44:12;;;;;;;6.95;4.30;;;25.00;99.90;;;;;;5070287;28;20039;-54
2022/05/11 03:46:38;;;;;;;5.63;4.57;;;25.00;99.90;;;;;;5070138;28;20499;-55
2022/05/11 03:49:04;;;;;;;5.32;4.13;;;25.00;99.90;;;;;;5070258;28;20033;-55
2022/05/11 03:51:29;;;;;;;6.68;4.35;;;25.00;99.90;;;;;;5071412;28;20028;-54
2022/05/11 03:53:56;;;;;;;5.47;4.13;;;25.00;99.90;;;;;;5071511;28;20020;-55
2022/05/11 03:56:22;;;;;;;5.93;4.05;;;25.00;99.90;;;;;;5071475;28;20024;-55
2022/05/11 03:58:48;;;;;;;4.95;4.00;;;25.00;99.90;;;;;;5071213;28;20033;-54
2022/05/11 04:01:14;;;;;;;5.72;4.47;;;25.00;99.90;;;;;;5094385;22;20563;-49
2022/05/11 04:03:41;;;;;;;6.30;4.25;;;25.00;99.90;;;;;;5071164;28;20028;-49
2022/05/11 04:06:08;;;;;;;5.85;4.28;;;25.00;99.90;;;;;;5071140;28;20024;-49
2022/05/11 04:08:34;;;;;;;5.03;4.00;;;25.00;99.90;;;;;;5071063;28;20100;-49
2022/05/11 04:11:00;;;;;;;5.90;4.00;;;25.00;99.90;;;;;;5071235;28;20028;-50
2022/05/11 04:13:26;;;;;;;5.20;3.85;;;24.90;99.90;;;;;;5053291;28;20027;-49
2022/05/11 04:15:53;;;;;;;7.80;4.10;;;25.00;99.90;;;;;;5071326;28;20426;-49
2022/05/11 04:18:20;;;;;;;5.28;3.85;;;25.00;99.90;;;;;;5070755;28;20441;-49
2022/05/11 04:20:46;;;;;;;5.25;3.53;;;24.90;99.90;;;;;;5070901;28;20039;-49
2022/05/11 04:23:12;;;;;;;4.75;3.75;;;25.00;99.90;;;;;;5071023;28;20056;-49
2022/05/11 04:28:23;;;;;;;5.93;3.85;;;24.90;99.90;;;;;;5071371;28;20031;-49
2022/05/11 04:30:49;;;;;;;4.75;4.00;;;24.90;99.90;;;;;;5071002;28;20410;-49
2022/05/11 04:33:14;;;;;;;4.75;3.63;;;24.90;99.90;;;;;;5071000;28;20100;-49
2022/05/11 04:35:40;;;;;;;5.60;3.90;;;24.90;99.90;;;;;;5072371;28;20060;-49
2022/05/11 04:38:07;;;;;;;4.88;3.80;;;24.90;99.90;;;;;;5074994;28;20037;-49
2022/05/11 04:40:34;;;;;;;5.63;4.18;;;24.90;99.90;;;;;;5074877;28;20036;-49
2022/05/11 04:43:10;;;;;;;4.28;3.88;;;24.90;99.90;;;;;;5074938;28;20021;-49
2022/05/11 04:45:40;;;;;;;5.60;4.47;;;24.90;99.90;;;;;;5074855;28;20055;-49
2022/05/11 04:48:06;;;;;;;5.50;3.75;;;24.90;99.90;;;;;;5074934;28;20021;-49
2022/05/11 04:50:32;;;;;;;6.65;3.90;;;24.90;99.90;;;;;;5074630;28;20027;-50
2022/05/11 04:52:59;;;;;;;7.85;3.90;;;24.90;99.90;;;;;;5075127;28;20021;-49
2022/05/11 04:55:24;;;;;;;5.25;4.15;;;24.90;99.90;;;;;;5074976;28;20388;-49
2022/05/11 04:57:50;;;;;;;6.97;4.18;;;24.90;99.90;;;;;;5074658;28;20032;-49
2022/05/11 05:00:16;;;;;;;4.90;3.55;;;24.90;99.90;;;;;;5074433;28;20463;-49
2022/05/11 05:02:42;;;;;;;8.48;4.38;;;24.80;99.90;;;;;;5074498;28;20027;-50
2022/05/11 05:05:10;;;;;;;5.38;3.55;;;24.90;99.90;;;;;;5074445;28;20480;-50
2022/05/11 05:07:36;;;;;;;5.60;3.85;;;24.80;99.90;;;;;;5074565;28;20035;-50
2022/05/11 05:10:07;;;;;;;8.85;4.60;;;24.80;99.90;;;;;;5074259;28;20028;-50
2022/05/11 05:12:33;;;;;;;6.50;3.88;;;24.80;99.90;;;;;;5074345;28;20024;-50
2022/05/11 05:15:18;;;;;;;6.22;3.90;;;24.80;99.90;;;;;;5074257;28;20016;-50
2022/05/11 05:17:43;;;;;;;7.35;4.95;;;24.80;99.90;;;;;;5074382;28;20027;-49
2022/05/11 05:20:12;;;;;;;6.25;3.75;;;24.80;99.90;;;;;;5056236;28;20439;-48
2022/05/11 05:22:56;;;;;;;6.72;4.32;;;24.80;99.90;;;;;;5056233;28;20028;-48
2022/05/11 05:25:22;;;;;;;8.30;4.40;;;24.80;99.90;;;;;;5074101;28;20017;-49
2022/05/11 05:27:52;;;;;;;6.65;4.28;;;24.80;99.90;;;;;;5074203;28;20400;-49
2022/05/11 05:33:03;;;;;;;6.25;4.43;;;24.80;99.90;;;;;;5074305;28;20114;-50
2022/05/11 05:35:29;;;;;;;5.53;3.75;;;24.80;99.90;;;;;;5074259;28;20025;-49
2022/05/11 05:37:55;;;;;;;6.57;4.22;;;24.80;99.90;;;;;;5073946;28;20033;-49
2022/05/11 05:40:21;;;;;;;6.25;4.40;;;24.80;99.90;;;;;;5073815;28;20444;-49
2022/05/11 05:42:47;;;;;;;6.78;4.15;;;24.80;99.90;;;;;;5073998;28;20016;-49
2022/05/11 05:45:13;;;;;;;8.55;4.50;;;24.80;99.90;;;;;;5073655;28;20024;-49
2022/05/11 05:47:39;;;;;;;8.00;4.68;;;24.80;99.90;;;;;;5073501;28;20104;-49
2022/05/11 05:50:06;;;;;;;6.30;4.25;;;24.80;99.90;;;;;;5073796;28;20066;-49
2022/05/11 05:52:32;;;;;;;9.80;4.80;;;24.80;99.90;;;;;;5073837;28;20024;-49
2022/05/11 05:54:58;;;;;;;9.38;5.38;;;24.80;99.90;;;;;;5073863;28;20032;-49
2022/05/11 05:57:24;;;;;;;7.68;4.60;;;24.80;99.90;;;;;;5073331;28;20369;-49
2022/05/11 05:59:50;;;;;;;9.05;4.93;;;24.80;99.90;;;;;;5073246;28;20143;-49
2022/05/11 06:02:16;;;;;;;10.38;4.95;;;24.80;99.90;;;;;;5073426;28;20033;-49
2022/05/11 06:04:50;;;;;;;6.75;4.25;;;24.80;99.90;;;;;;5073299;28;20021;-49
2022/05/11 06:07:35;;;;;;;6.75;4.47;;;24.80;99.90;;;;;;5073297;28;20082;-50
2022/05/11 06:10:01;;;;;;;7.15;4.50;;;24.80;99.90;;;;;;5073446;28;20537;-49
2022/05/11 06:12:27;;;;;;;6.72;4.13;;;24.80;99.90;;;;;;5073220;28;20029;-49
2022/05/11 06:15:13;;;;;;;7.32;4.60;;;24.80;99.90;;;;;;5073203;28;20546;-49
2022/05/11 06:17:38;;;;;;;5.95;3.72;;;24.80;99.90;;;;;;5073062;28;20028;-49
2022/05/11 06:20:08;;;;;;;5.85;3.85;;;24.80;99.90;;;;;;5073025;28;20040;-49
2022/05/11 06:22:34;;;;;;;5.50;3.97;;;24.80;99.90;;;;;;5073078;28;20518;-49
2022/05/11 06:25:20;;;;;;;8.13;4.67;;;24.80;99.90;;;;;;5055459;28;20111;-49
2022/05/11 06:27:46;;;;;;;8.35;4.35;;;24.80;99.90;;;;;;5072988;28;20035;-49
2022/05/11 06:30:12;;;;;;;5.82;3.58;;;24.80;99.90;;;;;;5072882;28;20043;-49
2022/05/11 06:32:38;;;;;;;6.70;4.70;;;24.80;99.90;;;;;;5072808;28;20035;-49
2022/05/11 06:35:04;;;;;;;6.90;4.13;;;24.90;99.90;;;;;;5072988;28;20029;-49
2022/05/11 06:37:30;;;;;;;7.90;4.93;;;24.80;99.90;;;;;;5072984;28;20024;-49
2022/05/11 06:39:56;;;;;;;6.90;4.95;;;24.90;99.90;;;;;;5072517;28;20491;-49
2022/05/11 06:42:24;;;;;;;7.07;5.00;;;24.90;99.90;;;;;;5072631;28;20029;-49
2022/05/11 06:44:50;;;;;;;8.02;5.18;;;24.90;99.90;;;;;;5072565;28;20480;-49
2022/05/11 06:47:17;;;;;;;8.30;4.43;;;24.90;99.90;;;;;;5072424;28;20082;-49
2022/05/11 06:49:42;;;;;;;8.13;5.47;;;24.90;99.90;;;;;;5072433;28;20024;-49
2022/05/11 06:52:08;;;;;;;7.78;4.60;;;24.90;99.90;;;;;;5072349;28;20050;-49
2022/05/11 07:00:04;;;;;;;5.93;4.30;;;24.90;99.90;;;;;;5072147;28;20094;-49
2022/05/11 07:02:29;;;;;;;8.85;4.38;;;24.90;99.90;;;;;;5072093;28;20077;-49
2022/05/11 07:04:56;;;;;;;6.22;4.03;;;24.90;99.90;;;;;;5072103;28;20028;-49
2022/05/11 07:07:22;;;;;;;5.75;4.43;;;25.00;99.90;;;;;;5054089;28;20476;-49
2022/05/11 07:09:48;;;;;;;7.32;4.50;;;25.00;99.90;;;;;;5072059;28;20032;-49
2022/05/11 07:12:37;;;;;;;6.65;4.25;;;24.90;99.90;;;;;;5071826;28;20464;-49
2022/05/11 07:15:06;;;;;;;6.85;4.25;;;24.90;99.90;;;;;;5072051;28;20098;-49
2022/05/11 07:17:35;;;;;;;6.43;4.18;;;25.00;99.90;;;;;;5071983;28;20041;-49
2022/05/11 07:20:07;;;;;;;6.80;4.13;;;25.00;99.90;;;;;;5072078;28;20068;-52
2022/05/11 07:22:33;;;;;;;5.93;4.32;;;24.90;99.90;;;;;;5072304;28;20428;-49
2022/05/11 07:24:58;;;;;;;6.28;3.90;;;25.00;99.90;;;;;;5071724;28;20060;-49
2022/05/11 07:27:25;;;;;;;6.00;4.05;;;25.00;99.90;;;;;;5071883;28;20021;-49
2022/05/11 07:29:52;;;;;;;5.57;4.05;;;25.00;99.90;;;;;;5071664;28;20017;-49
2022/05/11 07:32:18;;;;;;;6.32;4.18;;;25.00;99.90;;;;;;5071566;28;20036;-49
2022/05/11 07:34:44;;;;;;;9.43;4.82;;;25.00;99.90;;;;;;5071721;28;20080;-49
2022/05/11 07:37:10;;;;;;;5.50;4.22;;;25.00;99.90;;;;;;5071408;28;20124;-49
2022/05/11 07:39:56;;;;;;;6.45;4.38;;;25.00;99.90;;;;;;5071536;28;20036;-49
2022/05/11 07:42:23;;;;;;;7.83;4.73;;;25.00;99.90;;;;;;5071420;28;20025;-49
2022/05/11 07:44:49;;;;;;;7.00;4.13;;;25.00;99.90;;;;;;5071357;28;20020;-49
2022/05/11 07:47:16;;;;;;;5.70;3.80;;;25.00;99.90;;;;;;5071313;28;20036;-50
2022/05/11 07:49:42;;;;;;;5.65;4.20;;;25.00;99.90;;;;;;5071351;28;20029;-49
2022/05/11 07:52:08;;;;;;;5.85;4.45;;;25.00;99.90;;;;;;5071442;28;20541;-49
2022/05/11 07:54:34;;;;;;;6.00;4.10;;;25.00;99.90;;;;;;5071531;28;20060;-49
2022/05/11 07:59:56;;;;;;;7.65;4.07;;;25.00;99.90;;;;;;5071217;28;20063;-49
2022/05/11 08:02:26;;;;;;;;;;;25.00;99.90;;;;;;5071603;28;20052;-49
2022/05/11 08:04:53;;;;;;;5.70;3.97;;;25.00;99.90;;;;;;5071104;28;19908;-49
2022/05/11 08:07:22;;;;;;;7.18;4.30;;;25.00;99.90;;;;;;5071073;28;20464;-49
2022/05/11 08:09:48;;;;;;;6.30;4.25;;;25.00;99.90;;;;;;5070094;28;20450;-49
2022/05/11 08:12:13;;;;;;;5.68;4.07;;;24.90;99.90;;;;;;5070940;28;20040;-50
2022/05/11 08:14:40;;;;;;;5.25;4.15;;;24.90;99.90;;;;;;5071023;28;20027;-49
2022/05/11 08:17:06;;;;;;;5.90;4.20;;;24.90;99.90;;;;;;5071109;28;20024;-49
2022/05/11 08:19:32;;;;;;;5.78;4.25;;;24.90;99.90;;;;;;5070903;28;20098;-49
2022/05/11 08:21:58;;;;;;;5.90;4.43;;;24.90;99.90;;;;;;5052972;28;20037;-48
2022/05/11 08:24:26;;;;;;;4.82;3.90;;;24.90;99.90;;;;;;5070871;28;20021;-49
2022/05/11 08:26:51;;;;;;;5.65;3.53;;;24.90;99.90;;;;;;5053236;28;20031;-49
2022/05/11 08:34:50;;;;;;;6.18;3.75;;;25.00;99.90;;;;;;5071261;28;20100;-49
2022/05/11 08:37:16;;;;;;;4.78;3.88;;;25.00;99.90;;;;;;5070922;28;20016;-49
2022/05/11 08:39:43;;;;;;;5.10;3.45;;;25.00;99.90;;;;;;5070647;28;20024;-49
2022/05/11 08:42:11;;;;;;;6.45;4.15;;;25.00;99.90;;;;;;5070907;28;20250;-49
2022/05/11 08:44:45;;;;;;;5.95;3.63;;;25.00;99.90;;;;;;5070997;28;20383;-49
2022/05/11 08:50:18;;;;;;;5.77;4.37;;;25.00;99.90;;;;;;5070910;28;20032;-49
2022/05/11 08:53:11;;;;;;;4.97;4.05;;;25.10;99.90;;;;;;5070657;28;20033;-49
2022/05/11 08:55:46;;;;;;;5.10;3.83;;;25.10;99.90;;;;;;5070470;28;20096;-49
2022/05/11 09:01:14;;;;;;;5.88;3.97;;;25.10;99.90;;;;;;5070423;28;20090;-50
2022/05/11 09:03:59;;;;;;;6.15;4.32;;;25.10;99.90;;;;;;5070790;28;20013;-49
2022/05/11 09:06:28;;;;;;;7.97;4.25;;;25.20;99.90;;;;;;5070467;28;20025;-49
2022/05/11 09:08:55;;;;;;;6.93;4.45;;;25.10;99.90;;;;;;5070586;28;20407;-49
2022/05/11 09:11:50;;;;;;;6.15;4.45;;;25.10;99.90;;;;;;5052448;28;20032;-49
2022/05/11 09:14:23;;;;;;;5.00;4.45;;;25.20;99.90;;;;;;5043560;28;20044;-49
2022/05/11 09:16:52;;;;;;;5.43;3.83;;;25.20;99.90;;;;;;5070551;28;20415;-49
2022/05/11 09:19:27;;;;;;;5.10;4.10;;;25.20;99.90;;;;;;5070357;28;20050;-49
2022/05/11 09:22:14;;;;;;;7.00;3.85;;;25.20;99.90;;;;;;5072017;28;20029;-49
2022/05/11 09:24:56;;;;;;;6.35;4.47;;;25.20;99.90;;;;;;5074507;28;20022;-49
2022/05/11 09:27:30;;;;;;;6.65;3.70;;;25.20;99.90;;;;;;5073970;28;20028;-49
2022/05/11 09:33:22;;;;;;;7.20;4.82;;;25.20;99.90;;;;;;5074435;28;20572;-49
2022/05/11 09:35:48;;;;;;;5.20;3.90;;;25.20;99.90;;;;;;5055974;28;20404;-49
2022/05/11 09:38:17;;;;;;;5.15;3.80;;;25.20;99.90;;;;;;5074269;28;20027;-49
2022/05/11 09:41:12;;;;;;;7.10;4.57;;;25.20;99.90;;;;;;5074137;28;20074;-49
2022/05/11 09:43:52;;;;;;;7.55;4.25;;;25.20;99.90;;;;;;5073700;28;20035;-49
2022/05/11 09:46:23;;;;;;;6.40;4.55;;;25.20;99.90;;;;;;5073521;28;20025;-49
2022/05/11 09:51:46;;;;;;;6.65;4.55;;;25.30;99.90;;;;;;5073916;28;20038;-49
2022/05/11 09:54:38;;;;;;;6.85;4.13;;;25.20;99.90;;;;;;5073803;28;20111;-49
2022/05/11 09:57:09;;;;;;;5.20;4.53;;;25.30;99.90;;;;;;5073424;28;20032;-50
2022/05/11 09:59:40;;;;;;;6.22;4.53;;;25.30;99.90;;;;;;5073278;28;20027;-49
2022/05/11 10:02:24;;;;;;;6.45;4.80;;;25.30;99.90;;;;;;5073470;28;20612;-49
2022/05/11 10:04:59;;;;;;;8.50;5.25;;;25.30;99.90;;;;;;5073248;28;20036;-49
2022/05/11 10:07:28;;;;;;;9.90;4.40;;;25.30;99.90;;;;;;5073307;28;20024;-49
2022/05/11 10:10:01;;;;;;;7.60;4.70;;;25.30;99.90;;;;;;5073403;28;20024;-49
2022/05/11 10:12:31;;;;;;;6.80;4.25;;;25.30;99.90;;;;;;5073253;28;20017;-49
2022/05/11 10:23:46;;;;;;;5.85;4.30;;;25.40;99.90;;;;;;5073069;28;20082;-49
2022/05/11 10:26:22;;;;;;;5.80;4.22;;;25.30;99.90;;;;;;5073055;28;20038;-49
2022/05/11 10:28:51;;;;;;;6.10;4.35;;;25.30;99.90;;;;;;5072915;28;20048;-49
2022/05/11 10:31:29;;;;;;;6.63;4.60;;;25.30;99.90;;;;;;5073014;28;20384;-49
2022/05/11 10:34:19;;;;;;;6.07;4.32;;;25.30;99.90;;;;;;5071782;28;20082;-49
2022/05/11 10:37:19;;;;;;;10.68;4.65;;;25.40;99.90;;;;;;5072932;28;20071;-49
2022/05/11 10:40:10;;;;;;;6.63;4.70;;;25.40;99.90;;;;;;5066781;28;20510;-49
2022/05/11 10:43:21;;;;;;;6.70;4.70;;;25.40;99.90;;;;;;5072662;28;20020;-49
2022/05/11 10:46:05;;;;;;;5.72;4.68;;;25.40;99.90;;;;;;5072878;28;20466;-49
2022/05/11 10:49:06;;;;;;;5.85;4.05;;;25.40;99.90;;;;;;5072635;28;20049;-49
2022/05/11 10:51:40;;;;;;;7.40;4.75;;;25.40;99.90;;;;;;5072465;28;20047;-49
2022/05/11 10:54:33;;;;;;;5.82;4.22;;;25.40;99.90;;;;;;5072302;28;20496;-49
2022/05/11 10:57:20;;;;;;;6.43;4.85;;;25.40;99.90;;;;;;5072292;28;20504;-48
2022/05/11 11:00:05;;;;;;;;;;;25.50;99.90;;;;;;5072896;28;20116;-48
2022/05/11 11:02:47;;;;;;;6.30;4.38;;;25.40;99.90;;;;;;5072319;28;19908;-48
2022/05/11 11:05:22;;;;;;;5.93;4.75;;;25.50;99.90;;;;;;5072260;28;20078;-48
2022/05/11 11:08:12;;;;;;;6.80;4.88;;;25.50;99.90;;;;;;5072405;28;20082;-48
2022/05/11 11:10:53;;;;;;;6.15;4.05;;;25.50;99.90;;;;;;5072269;28;20048;-48
2022/05/11 11:13:25;;;;;;;4.82;4.00;;;25.50;99.90;;;;;;5071998;28;20031;-48
2022/05/11 11:15:52;;;;;;;6.63;4.55;;;25.50;99.90;;;;;;5072095;28;20602;-48
2022/05/11 11:18:22;;;;;;;;;;;25.50;99.90;;;;;;5072524;28;20097;-48
2022/05/11 11:20:49;;;;;;;5.20;3.92;;;25.50;99.90;;;;;;5072144;28;20003;-48
2022/05/11 11:23:14;;;;;;;6.35;4.10;;;25.50;99.90;;;;;;5071973;28;20020;-48
2022/05/11 11:25:51;;;;;;;6.22;4.55;;;25.50;99.90;;;;;;5071973;28;20380;-48
2022/05/11 11:28:29;;;;;;;5.72;4.18;;;25.50;99.90;;;;;;5072117;28;20381;-49
2022/05/11 11:31:00;;;;;;;5.55;3.70;;;25.50;99.90;;;;;;5071942;28;20032;-48
2022/05/11 11:33:30;;;;;;;6.35;4.20;;;25.60;99.90;;;;;;5071828;28;20028;-49
2022/05/11 11:36:06;;;;;;;5.38;3.83;;;25.60;99.90;;;;;;5071646;28;20476;-49
2022/05/11 11:38:47;;;;;;;5.97;4.47;;;25.60;99.90;;;;;;5071669;28;20021;-49
2022/05/11 11:41:19;;;;;;;5.68;3.88;;;25.60;99.90;;;;;;5071499;28;20039;-50
2022/05/11 11:44:26;;;;;;;5.10;3.92;;;25.60;99.90;;;;;;5071558;28;20123;-49
2022/05/11 11:46:52;;;;;;;6.60;4.35;;;25.60;99.90;;;;;;5017944;28;20396;-49
2022/05/11 11:49:21;;;;;;;5.60;4.10;;;25.60;99.90;;;;;;5071724;28;20040;-49
2022/05/11 11:51:53;;;;;;;6.97;4.03;;;25.60;99.90;;;;;;5071771;28;20031;-49
2022/05/11 11:54:31;;;;;;;6.78;4.18;;;25.60;99.90;;;;;;5071723;28;20016;-50
2022/05/11 11:57:00;;;;;;;5.82;4.00;;;25.60;99.90;;;;;;5071370;28;20055;-49
2022/05/11 11:59:26;;;;;;;4.43;3.90;;;25.70;99.90;;;;;;5071251;28;20017;-50
2022/05/11 12:02:01;;;;;;;5.47;3.53;;;25.60;99.90;;;;;;5071231;28;20112;-50
2022/05/11 12:04:34;;;;;;;8.07;4.15;;;25.70;99.90;;;;;;5071328;28;20494;-49
2022/05/11 12:15:33;;;;;;;5.20;3.90;;;25.70;99.90;;;;;;5071458;28;20063;-49
2022/05/11 12:18:00;;;;;;;5.03;3.88;;;25.70;99.90;;;;;;5053118;28;20452;-49
2022/05/11 12:20:44;;;;;;;5.30;3.30;;;25.70;99.90;;;;;;5071263;28;20036;-50
2022/05/11 12:23:20;;;;;;;5.15;3.50;;;25.70;99.90;;;;;;5053049;28;20105;-50
2022/05/11 12:25:56;;;;;;;7.07;4.70;;;25.70;99.90;;;;;;5071164;28;20025;-49
2022/05/11 12:28:46;;;;;;;5.78;4.53;;;25.70;99.90;;;;;;5071303;28;20107;-49
2022/05/11 12:31:32;;;;;;;5.47;3.95;;;25.80;99.90;;;;;;5070986;28;20059;-49
2022/05/11 12:33:58;;;;;;;6.65;3.80;;;25.80;99.90;;;;;;5071069;28;20075;-49
2022/05/11 12:36:38;;;;;;;5.93;3.70;;;25.80;99.90;;;;;;5071348;28;20172;-49
2022/05/11 12:39:04;;;;;;;4.93;3.78;;;25.80;99.90;;;;;;5071078;28;20099;-49
2022/05/11 12:41:31;;;;;;;5.45;3.88;;;25.80;99.90;;;;;;5070638;28;20048;-49
2022/05/11 12:44:03;;;;;;;6.00;3.43;;;25.80;99.90;;;;;;5070667;28;20020;-49
2022/05/11 12:46:30;;;;;;;5.85;4.10;;;25.80;99.90;;;;;;5070687;28;20261;-49
2022/05/11 12:49:01;;;;;;;6.90;4.45;;;25.90;99.90;;;;;;5070952;28;20024;-49
2022/05/11 12:51:42;;;;;;;5.57;3.75;;;25.90;99.90;;;;;;5070791;28;20477;-49
2022/05/11 12:54:17;;;;;;;5.57;4.00;;;25.90;99.90;;;;;;5070611;28;20115;-49
2022/05/11 12:56:43;;;;;;;6.88;3.85;;;25.90;99.90;;;;;;5072111;28;20376;-49
2022/05/11 12:59:22;;;;;;;5.82;4.03;;;25.90;99.90;;;;;;5074483;28;20017;-49
2022/05/11 13:01:47;;;;;;;4.80;3.72;;;25.90;99.90;;;;;;5074313;28;20048;-49
2022/05/11 13:04:27;;;;;;;5.97;3.88;;;26.00;99.90;;;;;;5074440;28;20380;-49
2022/05/11 13:06:57;;;;;;;6.13;3.92;;;25.90;99.90;;;;;;5074647;28;20115;-49
2022/05/11 13:09:39;;;;;;;5.80;4.00;;;25.90;99.90;;;;;;5074570;28;20383;-49
2022/05/11 13:12:08;;;;;;;6.40;4.20;;;25.90;99.90;;;;;;5074372;28;20113;-49
2022/05/11 13:14:37;;;;;;;5.32;3.72;;;26.00;99.90;;;;;;5074397;28;20025;-49
2022/05/11 13:17:06;;;;;;;7.38;4.10;;;26.00;99.90;;;;;;5074207;28;20032;-49
2022/05/11 13:19:34;;;;;;;4.90;3.80;;;26.00;99.90;;;;;;5074150;28;20028;-49
2022/05/11 13:22:12;;;;;;;5.97;3.85;;;26.00;99.90;;;;;;5074292;28;20107;-49
2022/05/11 13:24:50;;;;;;;6.00;3.97;;;26.00;99.90;;;;;;5074049;28;20025;-49
2022/05/11 13:27:48;;;;;;;4.82;3.80;;;26.00;99.90;;;;;;5074066;28;20170;-49
2022/05/11 13:30:29;;;;;;;5.28;4.18;;;26.00;99.90;;;;;;5074168;28;20439;-50
2022/05/11 13:32:58;;;;;;;4.43;3.45;;;26.00;99.90;;;;;;5074347;28;20035;-49
2022/05/11 13:35:31;;;;;;;6.68;4.13;;;26.00;99.90;;;;;;5074177;28;20376;-49
2022/05/11 13:38:14;;;;;;;5.60;4.30;;;26.00;99.90;;;;;;5056093;28;20025;-50
2022/05/11 13:40:55;;;;;;;7.25;4.68;;;26.10;99.90;;;;;;5074003;28;20369;-50
2022/05/11 13:43:26;;;;;;;5.15;3.85;;;26.10;99.90;;;;;;5073591;28;20027;-49
2022/05/11 13:46:09;;;;;;;5.28;4.20;;;26.10;99.90;;;;;;5073857;28;20025;-49
2022/05/11 13:48:39;;;;;;;6.43;4.20;;;26.10;99.90;;;;;;5073849;28;20043;-49
2022/05/11 13:51:25;;;;;;;5.38;4.55;;;26.10;99.90;;;;;;5073728;28;20526;-49
2022/05/11 13:53:57;;;;;;;7.55;4.57;;;26.10;99.90;;;;;;5073515;28;20024;-49
2022/05/11 13:56:28;;;;;;;6.53;4.78;;;26.10;99.90;;;;;;5073440;28;20110;-49
2022/05/11 13:58:57;;;;;;;5.95;4.40;;;26.10;99.90;;;;;;5073871;28;20040;-49
2022/05/11 14:01:29;;;;;;;6.88;4.50;;;26.10;99.90;;;;;;5055513;28;20123;-49
2022/05/11 14:03:57;;;;;;;5.43;4.07;;;26.10;99.90;;;;;;5073751;28;20527;-49